Time;durP1;ratioP1;P1;durP2;ratioP2;P2;SDS_P1;SDS_P2;PMS_P1;PMS_P2;Temp;Humidity;BMP_temperature;BMP_pressure;BME280_temperature;BME280_humidity;BME280_pressure;Samples;Min_cycle;Max_cycle;Signal;HPM_P1;HPM_P2
2023/05/09 00:03:33;;;;;;;2.00;0.88;;;;;;;20.78;46.85;101696.94;16119225;19;130113;-45
2023/05/09 00:08:55;;;;;;;2.15;0.95;;;;;;;20.78;46.92;101696.09;16124288;19;131444;-46
2023/05/09 00:14:17;;;;;;;1.75;0.95;;;;;;;20.77;46.78;101700.81;16115978;19;129490;-43
2023/05/09 00:19:39;;;;;;;2.40;0.93;;;;;;;20.74;46.92;101690.16;16117006;19;129556;-45
2023/05/09 00:25:00;;;;;;;1.50;0.70;;;;;;;20.74;46.69;101687.38;16114576;19;129522;-44
2023/05/09 00:30:22;;;;;;;0.70;0.60;;;;;;;20.73;46.69;101678.19;16120284;19;129849;-44
2023/05/09 00:35:45;;;;;;;0.90;0.70;;;;;;;20.72;46.90;101678.41;16120379;19;130755;-41
2023/05/09 00:41:07;;;;;;;1.50;0.80;;;;;;;20.70;46.75;101669.47;16113837;19;131028;-44
2023/05/09 00:46:29;;;;;;;3.20;0.75;;;;;;;20.69;46.84;101656.66;16113939;19;130056;-43
2023/05/09 00:51:52;;;;;;;0.90;0.70;;;;;;;20.67;46.83;101640.22;16112465;19;130613;-43
2023/05/09 00:57:16;;;;;;;1.85;0.88;;;;;;;20.67;46.94;101642.16;16115211;19;129874;-41
2023/05/09 01:02:43;;;;;;;2.08;0.70;;;;;;;20.66;46.84;101638.53;16116675;19;129569;-41
2023/05/09 01:08:16;;;;;;;1.25;0.60;;;;;;;20.65;47.07;101619.31;16116013;19;131740;-46
2023/05/09 01:14:07;;;;;;;2.05;0.70;;;;;;;20.64;46.90;101620.41;16115685;19;130678;-43
2023/05/09 01:20:12;;;;;;;2.55;0.73;;;;;;;20.63;47.21;101599.25;16114809;19;132058;-42
2023/05/09 01:25:58;;;;;;;1.67;0.70;;;;;;;20.61;46.94;101593.94;16114594;19;130124;-45
2023/05/09 01:31:20;;;;;;;1.43;0.70;;;;;;;20.57;47.12;101579.66;16117989;19;129387;-41
2023/05/09 01:36:44;;;;;;;1.42;0.70;;;;;;;20.57;47.28;101581.59;16115487;19;129731;-41
2023/05/09 01:42:08;;;;;;;2.33;0.80;;;;;;;20.56;46.84;101575.19;16111630;19;134098;-43
2023/05/09 01:47:31;;;;;;;1.25;0.80;;;;;;;20.55;47.10;101567.09;16116232;19;131518;-42
2023/05/09 01:52:58;;;;;;;1.83;0.88;;;;;;;20.55;47.20;101562.41;16110790;19;131599;-42
2023/05/09 01:58:22;;;;;;;1.05;0.60;;;;;;;20.54;46.84;101565.41;16112649;19;130384;-44
2023/05/09 02:03:46;;;;;;;1.02;0.63;;;;;;;20.53;46.82;101559.03;16112584;19;130185;-44
2023/05/09 02:09:08;;;;;;;0.70;0.60;;;;;;;20.53;47.07;101555.38;16114108;19;129663;-42
2023/05/09 02:14:30;;;;;;;3.25;0.80;;;;;;;20.52;46.71;101549.00;16113502;19;130443;-44
2023/05/09 02:19:52;;;;;;;1.40;0.65;;;;;;;20.51;47.03;101552.84;16110510;19;132004;-42
2023/05/09 02:25:14;;;;;;;3.33;0.50;;;;;;;20.51;46.95;101558.41;16113538;19;130581;-45
2023/05/09 02:30:41;;;;;;;1.42;0.55;;;;;;;20.50;46.84;101542.81;16127891;19;131016;-41
2023/05/09 02:36:04;;;;;;;1.42;0.80;;;;;;;20.49;47.02;101534.75;16129616;19;129625;-42
2023/05/09 02:41:27;;;;;;;1.58;0.73;;;;;;;20.48;47.06;101531.09;16124166;19;131021;-43
2023/05/09 02:46:49;;;;;;;3.75;0.70;;;;;;;20.48;47.02;101528.31;16119344;19;130037;-43
2023/05/09 02:52:11;;;;;;;0.70;0.70;;;;;;;20.47;47.25;101529.41;16128435;19;131213;-43
2023/05/09 02:57:33;;;;;;;1.90;1.02;;;;;;;20.45;47.26;101518.53;16126130;19;129852;-41
2023/05/09 03:02:55;;;;;;;0.60;0.50;;;;;;;20.44;47.13;101511.28;16127621;19;130832;-44
2023/05/09 03:08:17;;;;;;;0.88;0.60;;;;;;;20.45;46.92;101507.44;16126137;19;131059;-43
2023/05/09 03:13:39;;;;;;;1.17;0.65;;;;;;;20.43;46.80;101509.59;16122751;19;129598;-43
2023/05/09 03:19:02;;;;;;;0.85;0.50;;;;;;;20.44;46.98;101502.09;16125265;19;134134;-45
2023/05/09 03:24:27;;;;;;;1.42;0.60;;;;;;;20.43;47.14;101487.38;16125085;19;129713;-44
2023/05/09 03:29:49;;;;;;;1.50;0.57;;;;;;;20.43;46.92;101476.25;16124056;19;129756;-46
2023/05/09 03:35:11;;;;;;;0.85;0.65;;;;;;;20.42;47.10;101473.72;16126014;19;130776;-41
2023/05/09 03:40:33;;;;;;;2.28;0.50;;;;;;;20.42;46.73;101465.41;16115676;19;130155;-42
2023/05/09 03:45:55;;;;;;;0.40;0.40;;;;;;;20.41;46.92;101466.47;16120539;19;130141;-44
2023/05/09 03:51:17;;;;;;;1.58;0.50;;;;;;;20.40;46.98;101464.78;16121949;19;129737;-41
2023/05/09 03:56:39;;;;;;;0.90;0.50;;;;;;;20.39;46.88;101452.81;16121698;19;129437;-43
2023/05/09 04:02:01;;;;;;;0.77;0.47;;;;;;;20.38;46.65;101445.56;16123505;19;130474;-42
2023/05/09 04:07:22;;;;;;;0.43;0.43;;;;;;;20.38;46.67;101433.63;16120276;19;130247;-45
2023/05/09 04:12:44;;;;;;;0.68;0.50;;;;;;;20.37;46.84;101431.94;16120494;19;132532;-43
2023/05/09 04:18:06;;;;;;;0.50;0.50;;;;;;;20.37;46.89;101426.38;16120091;19;130737;-44
2023/05/09 04:23:28;;;;;;;0.68;0.50;;;;;;;20.35;46.78;101418.28;16122482;19;130368;-43
2023/05/09 04:28:51;;;;;;;0.50;0.50;;;;;;;20.34;46.70;101408.25;16121777;19;130745;-43
2023/05/09 04:34:13;;;;;;;0.57;0.50;;;;;;;20.34;46.83;101415.75;16118884;19;129357;-41
2023/05/09 04:39:35;;;;;;;0.40;0.40;;;;;;;20.33;46.52;101405.72;16120088;19;129422;-42
2023/05/09 04:44:57;;;;;;;0.40;0.30;;;;;;;20.33;46.51;101400.16;16118496;19;130758;-46
2023/05/09 04:50:19;;;;;;;2.15;0.40;;;;;;;20.32;46.78;101401.25;16118552;19;129519;-42
2023/05/09 04:55:41;;;;;;;0.40;0.40;;;;;;;20.31;46.85;101402.34;16119403;19;129472;-45
2023/05/09 05:01:06;;;;;;;0.50;0.40;;;;;;;20.29;46.72;101395.13;16119286;19;129112;-41
2023/05/09 05:06:28;;;;;;;0.88;0.40;;;;;;;20.29;47.09;101381.22;16120302;19;130578;-46
2023/05/09 05:11:50;;;;;;;0.40;0.40;;;;;;;20.27;46.60;101377.84;16118289;19;130269;-41
2023/05/09 05:17:23;;;;;;;1.33;0.50;;;;;;;20.27;46.94;101375.06;16115635;19;129502;-42
2023/05/09 05:22:45;;;;;;;10.90;1.40;;;;;;;20.27;46.52;101368.66;16113998;19;129457;-41
2023/05/09 05:28:07;;;;;;;9.35;0.80;;;;;;;20.25;46.68;101360.56;16113330;19;129581;-40
2023/05/09 05:33:29;;;;;;;15.15;1.10;;;;;;;20.27;46.53;101361.16;16112561;19;130690;-40
2023/05/09 05:38:51;;;;;;;6.50;1.23;;;;;;;20.33;46.53;101355.69;16112620;19;131564;-41
2023/05/09 05:44:13;;;;;;;9.85;1.63;;;;;;;20.38;46.47;101351.09;16108916;19;131184;-40
2023/05/09 05:49:34;;;;;;;20.95;2.10;;;;;;;20.41;46.67;101350.59;16110717;19;129308;-40
2023/05/09 05:54:56;;;;;;;13.60;1.73;;;;;;;20.43;46.54;101355.94;16108884;19;131476;-39
2023/05/09 06:00:19;;;;;;;14.88;1.58;;;;;;;20.44;46.50;101352.03;16111942;19;129935;-40
2023/05/09 06:05:43;;;;;;;12.80;1.45;;;;;;;20.43;46.39;101348.41;16116407;19;133326;-49
2023/05/09 06:11:05;;;;;;;17.15;1.80;;;;;;;20.44;46.31;101354.81;16118186;19;131794;-49
2023/05/09 06:16:26;;;;;;;17.77;1.85;;;;;;;20.44;46.39;101343.69;16115765;19;129953;-41
2023/05/09 06:21:48;;;;;;;11.85;1.40;;;;;;;20.43;46.73;101342.84;16116171;19;131852;-40
2023/05/09 06:27:10;;;;;;;13.55;1.58;;;;;;;20.42;46.37;101334.78;16116052;19;130011;-40
2023/05/09 06:32:32;;;;;;;11.82;1.55;;;;;;;20.40;46.31;101336.97;16113616;19;130599;-41
2023/05/09 06:37:54;;;;;;;15.23;1.92;;;;;;;20.38;46.81;101337.19;16110769;19;130582;-41
2023/05/09 06:43:16;;;;;;;18.48;1.90;;;;;;;20.38;46.83;101322.47;16111281;19;130723;-42
2023/05/09 06:48:37;;;;;;;8.57;1.60;;;;;;;20.36;46.97;101319.09;16111801;19;130305;-43
2023/05/09 06:53:59;;;;;;;11.38;1.95;;;;;;;20.35;46.82;101322.94;16110028;19;129547;-40
2023/05/09 06:59:21;;;;;;;12.77;2.22;;;;;;;20.34;46.77;101310.16;16111689;19;131493;-40
2023/05/09 07:04:43;;;;;;;10.70;2.20;;;;;;;20.34;46.63;101296.25;16109248;19;129540;-41
2023/05/09 07:10:06;;;;;;;11.88;2.17;;;;;;;20.34;46.75;101290.69;16104441;19;129808;-40
2023/05/09 07:15:32;;;;;;;5.97;1.35;;;;;;;20.34;46.56;101276.81;16119690;19;130570;-41
2023/05/09 07:21:03;;;;;;;7.43;1.52;;;;;;;20.34;46.71;101268.47;16120244;19;129750;-40
2023/05/09 07:26:25;;;;;;;7.25;1.70;;;;;;;20.34;46.73;101265.69;16115290;19;130391;-41
2023/05/09 07:31:47;;;;;;;8.25;1.50;;;;;;;20.34;46.98;101260.13;16120704;19;129657;-40
2023/05/09 07:37:09;;;;;;;4.55;1.10;;;;;;;20.34;46.85;101262.91;16120644;19;129924;-40
2023/05/09 07:42:31;;;;;;;5.85;1.30;;;;;;;20.34;46.80;101254.56;16122832;19;130628;-41
2023/05/09 07:47:53;;;;;;;7.13;1.48;;;;;;;20.36;47.01;101252.41;16123899;19;130687;-40
2023/05/09 07:53:15;;;;;;;4.88;1.17;;;;;;;20.35;46.78;101246.00;16120270;19;131919;-42
2023/05/09 07:58:37;;;;;;;7.28;1.55;;;;;;;20.35;46.83;101239.59;16123347;19;131139;-42
2023/05/09 08:03:59;;;;;;;2.95;1.30;;;;;;;20.36;46.81;101230.16;16117230;19;130562;-40
2023/05/09 08:09:21;;;;;;;7.00;1.42;;;;;;;20.36;46.98;101221.84;16116753;19;133010;-43
2023/05/09 08:14:43;;;;;;;4.72;1.50;;;;;;;20.36;46.70;101214.34;16122948;19;130899;-42
2023/05/09 08:20:06;;;;;;;10.43;1.60;;;;;;;20.37;47.06;101202.13;16117616;19;130532;-42
2023/05/09 08:25:28;;;;;;;11.65;1.65;;;;;;;20.38;47.16;101195.47;16116794;19;130493;-43
2023/05/09 08:30:50;;;;;;;4.20;1.25;;;;;;;20.42;47.26;101190.28;16116198;19;129557;-41
2023/05/09 08:36:13;;;;;;;3.60;1.20;;;;;;;20.49;47.61;101190.09;16113505;19;129623;-42
2023/05/09 08:41:35;;;;;;;5.20;1.10;;;;;;;20.55;47.60;101187.16;16112107;19;131423;-45
2023/05/09 08:47:01;;;;;;;5.53;1.13;;;;;;;20.64;47.49;101186.72;16121606;19;131182;-42
2023/05/09 08:52:23;;;;;;;3.60;0.73;;;;;;;20.68;47.57;101169.28;16123023;19;129956;-43
2023/05/09 08:57:45;;;;;;;5.63;0.80;;;;;;;20.72;47.02;101172.38;16120606;19;130849;-40
2023/05/09 09:03:07;;;;;;;5.20;1.15;;;;;;;20.73;47.39;101158.25;16120440;19;129610;-41
2023/05/09 09:08:29;;;;;;;9.25;1.13;;;;;;;20.75;47.33;101157.97;16115026;19;129896;-42
2023/05/09 09:13:53;;;;;;;2.05;0.95;;;;;;;20.76;47.24;101168.03;16119558;19;129891;-40
2023/05/09 09:19:16;;;;;;;8.55;0.98;;;;;;;20.77;46.92;101153.03;16114161;19;131760;-44
2023/05/09 09:24:38;;;;;;;3.10;0.80;;;;;;;20.76;46.56;101154.16;16114378;19;129226;-42
2023/05/09 09:30:11;;;;;;;1.77;0.80;;;;;;;20.80;46.91;101148.91;16115759;19;129567;-40
2023/05/09 09:35:38;;;;;;;4.72;0.77;;;;;;;20.81;46.43;101154.19;16114926;19;129305;-40
2023/05/09 09:41:00;;;;;;;4.43;1.00;;;;;;;20.81;46.41;101145.84;16116026;19;130050;-43
2023/05/09 09:46:23;;;;;;;3.97;0.77;;;;;;;20.83;46.37;101134.50;16117378;19;130697;-40
2023/05/09 09:51:58;;;;;;;4.45;0.95;;;;;;;20.87;46.40;101133.72;16118467;19;130473;-41
2023/05/09 09:57:35;;;;;;;1.77;0.77;;;;;;;20.87;46.44;101136.50;16115250;19;131017;-40
2023/05/09 10:02:58;;;;;;;4.70;0.75;;;;;;;20.87;46.43;101127.31;16112791;19;129363;-41
2023/05/09 10:08:20;;;;;;;2.10;0.60;;;;;;;20.88;46.37;101118.72;16115023;19;128955;-42
2023/05/09 10:13:43;;;;;;;2.97;0.80;;;;;;;20.90;46.48;101124.00;16115806;19;130874;-41
2023/05/09 10:19:05;;;;;;;1.50;0.77;;;;;;;20.90;46.05;101119.31;16111933;19;129573;-40
2023/05/09 10:24:41;;;;;;;1.63;0.77;;;;;;;20.95;45.96;101114.91;16112936;19;130283;-45
2023/05/09 10:30:07;;;;;;;1.23;0.85;;;;;;;20.96;45.90;101113.81;16111636;19;130263;-41
2023/05/09 10:35:36;;;;;;;0.60;0.50;;;;;;;20.95;46.38;101103.78;16111513;19;130843;-44
2023/05/09 10:40:58;;;;;;;1.42;0.60;;;;;;;20.96;46.10;101095.19;16110887;19;131433;-40
2023/05/09 10:46:22;;;;;;;0.80;0.40;;;;;;;20.97;46.16;101090.47;16109709;19;129407;-43
2023/05/09 10:51:44;;;;;;;5.40;1.13;;;;;;;20.93;46.27;101084.56;16125607;19;129613;-40
2023/05/09 10:57:10;;;;;;;2.03;0.68;;;;;;;20.96;45.80;101077.66;16127599;19;131525;-43
2023/05/09 11:02:33;;;;;;;6.30;0.82;;;;;;;20.97;45.91;101071.00;16127882;19;129592;-41
2023/05/09 11:08:17;;;;;;;5.82;0.70;;;;;;;20.98;45.79;101069.88;16127127;19;129421;-40
2023/05/09 11:13:45;;;;;;;13.50;0.68;;;;;;;20.99;46.32;101058.50;16122921;19;129513;-39
2023/05/09 11:19:07;;;;;;;8.57;1.30;;;;;;;21.07;46.15;101051.63;16125547;19;129533;-44
2023/05/09 11:24:31;;;;;;;3.88;1.00;;;;;;;21.10;45.83;101056.69;16124573;19;129453;-48
2023/05/09 11:29:58;;;;;;;10.40;0.93;;;;;;;21.12;46.37;101053.63;16127902;19;130413;-47
2023/05/09 11:35:22;;;;;;;13.65;1.13;;;;;;;21.11;46.35;101040.84;16123766;19;129496;-46
2023/05/09 11:40:44;;;;;;;9.27;0.80;;;;;;;21.09;46.45;101038.31;16125566;19;130801;-46
2023/05/09 11:46:06;;;;;;;2.60;0.80;;;;;;;21.09;46.50;101029.13;16123221;19;129241;-48
2023/05/09 11:51:28;;;;;;;15.35;0.98;;;;;;;21.08;46.57;101025.50;16122244;19;129647;-48
2023/05/09 11:56:50;;;;;;;5.50;0.90;;;;;;;21.06;46.49;101020.22;16123042;19;129621;-46
2023/05/09 12:02:13;;;;;;;3.95;0.85;;;;;;;21.06;46.28;101006.31;16121096;19;130457;-48
2023/05/09 12:07:36;;;;;;;9.32;0.80;;;;;;;21.03;46.71;101004.03;16117734;19;130118;-47
2023/05/09 12:12:58;;;;;;;8.95;0.90;;;;;;;20.99;46.32;101000.09;16123448;19;129152;-45
2023/05/09 12:18:22;;;;;;;5.75;0.85;;;;;;;21.00;46.25;100998.16;16122871;19;129158;-49
2023/05/09 12:23:47;;;;;;;5.03;0.68;;;;;;;20.97;46.51;101001.47;16121580;19;129570;-44
2023/05/09 12:29:13;;;;;;;2.47;0.70;;;;;;;20.96;46.80;100988.66;16119365;19;129509;-43
2023/05/09 12:34:35;;;;;;;5.20;0.80;;;;;;;20.94;46.68;100983.34;16120919;19;131727;-47
2023/05/09 12:40:05;;;;;;;5.95;1.10;;;;;;;20.96;46.74;100972.81;16120731;19;130794;-45
2023/05/09 12:45:27;;;;;;;5.32;0.70;;;;;;;20.94;46.97;100975.03;16118564;19;130655;-46
2023/05/09 12:50:50;;;;;;;6.85;0.93;;;;;;;20.95;46.96;100964.72;16121281;19;130862;-49
2023/05/09 12:56:14;;;;;;;2.30;0.63;;;;;;;20.95;47.01;100970.28;16120637;19;129447;-51
2023/05/09 13:01:36;;;;;;;5.28;0.63;;;;;;;20.94;46.69;100971.38;16119677;19;130304;-44
2023/05/09 13:06:58;;;;;;;4.82;0.60;;;;;;;20.93;46.95;100961.34;16119771;19;130097;-48
2023/05/09 13:12:20;;;;;;;3.40;0.60;;;;;;;20.92;46.72;100966.09;16118067;19;131610;-50
2023/05/09 13:17:42;;;;;;;4.28;0.43;;;;;;;20.90;46.44;100952.47;16118152;19;131310;-47
2023/05/09 13:23:04;;;;;;;3.05;0.50;;;;;;;20.88;46.45;100954.66;16119112;19;129267;-46
2023/05/09 13:28:26;;;;;;;3.42;0.60;;;;;;;20.87;46.98;100952.13;16116433;19;134286;-48
2023/05/09 13:33:49;;;;;;;3.80;0.52;;;;;;;20.87;46.49;100946.56;16115416;19;128934;-48
2023/05/09 13:39:12;;;;;;;6.50;0.80;;;;;;;20.85;47.08;100938.50;16115286;19;130074;-50
2023/05/09 13:44:34;;;;;;;3.13;0.63;;;;;;;20.87;46.72;100936.28;16117087;19;130399;-48
2023/05/09 13:49:56;;;;;;;3.28;0.50;;;;;;;20.87;46.79;100941.84;16117585;19;130035;-47
2023/05/09 13:55:18;;;;;;;4.63;0.55;;;;;;;20.87;46.95;100930.72;16116600;19;130109;-47
2023/05/09 14:00:40;;;;;;;1.58;0.60;;;;;;;20.87;46.73;100927.94;16115555;19;129332;-48
2023/05/09 14:06:03;;;;;;;4.93;0.50;;;;;;;20.86;46.61;100917.94;16116275;19;130294;-43
2023/05/09 14:11:25;;;;;;;0.85;0.30;;;;;;;20.84;47.04;100911.78;16114159;19;131617;-47
2023/05/09 14:16:48;;;;;;;5.18;0.50;;;;;;;20.83;46.96;100910.09;16107700;19;131429;-48
2023/05/09 14:22:10;;;;;;;4.45;0.60;;;;;;;20.82;46.68;100902.84;16113907;19;129602;-47
2023/05/09 14:27:35;;;;;;;3.85;0.80;;;;;;;20.85;46.41;100905.13;16129888;19;129396;-45
2023/05/09 14:32:57;;;;;;;3.42;0.65;;;;;;;20.89;46.77;100889.59;16126281;19;129204;-45
2023/05/09 14:38:20;;;;;;;4.40;0.55;;;;;;;20.89;46.66;100884.03;16128639;19;131544;-44
2023/05/09 14:43:41;;;;;;;2.97;0.47;;;;;;;20.97;46.68;100879.09;16129248;19;130306;-46
2023/05/09 14:49:04;;;;;;;1.27;0.40;;;;;;;21.01;46.49;100886.63;16127588;19;129639;-49
2023/05/09 14:54:26;;;;;;;2.75;0.43;;;;;;;21.08;46.67;100866.94;16132371;19;129728;-51
2023/05/09 14:59:48;;;;;;;1.63;0.40;;;;;;;21.14;46.53;100874.25;16128051;19;129445;-47
2023/05/09 15:05:10;;;;;;;1.08;0.30;;;;;;;21.15;46.35;100870.38;16124976;19;129387;-48
2023/05/09 15:10:32;;;;;;;3.13;0.30;;;;;;;21.16;46.29;100872.06;16126090;19;131855;-50
2023/05/09 15:15:54;;;;;;;4.13;0.60;;;;;;;21.17;46.17;100873.69;16127191;19;130267;-49
2023/05/09 15:21:16;;;;;;;0.88;0.43;;;;;;;21.20;46.45;100870.41;16124439;19;129889;-50
2023/05/09 15:26:38;;;;;;;4.18;0.40;;;;;;;21.20;45.97;100866.78;16125062;19;131459;-47
2023/05/09 15:32:00;;;;;;;3.30;0.40;;;;;;;21.23;45.99;100860.69;16124239;19;131031;-49
2023/05/09 15:37:22;;;;;;;1.77;0.45;;;;;;;21.27;45.85;100861.00;16125849;19;129546;-44
2023/05/09 15:42:46;;;;;;;3.53;0.52;;;;;;;21.27;45.87;100864.63;16124207;19;131169;-46
2023/05/09 15:48:08;;;;;;;0.53;0.20;;;;;;;21.27;46.06;100861.00;16122464;19;131190;-43
2023/05/09 15:53:30;;;;;;;2.95;0.40;;;;;;;21.28;45.65;100863.50;16121341;19;130823;-46
2023/05/09 15:58:52;;;;;;;1.65;0.50;;;;;;;21.28;45.67;100857.94;16124620;19;129349;-45
2023/05/09 16:04:14;;;;;;;3.75;0.93;;;;;;;21.27;45.87;100849.88;16123723;19;129678;-49
2023/05/09 16:09:36;;;;;;;7.38;1.80;;;;;;;21.25;45.81;100846.50;16121028;19;131254;-49
2023/05/09 16:14:58;;;;;;;10.25;2.20;;;;;;;21.21;45.83;100838.69;16116101;19;130885;-47
2023/05/09 16:20:19;;;;;;;10.95;2.75;;;;;;;21.19;45.68;100837.28;16113037;19;131927;-47
2023/05/09 16:25:41;;;;;;;13.77;2.92;;;;;;;21.17;46.00;100843.09;16121049;19;134242;-47
2023/05/09 16:31:03;;;;;;;11.43;2.60;;;;;;;21.14;45.75;100832.53;16118594;19;130693;-47
2023/05/09 16:36:25;;;;;;;10.68;3.05;;;;;;;21.13;46.11;100828.06;16118211;19;130724;-46
2023/05/09 16:41:47;;;;;;;17.02;3.53;;;;;;;21.11;46.24;100833.06;16119932;19;131675;-46
2023/05/09 16:47:09;;;;;;;13.75;3.83;;;;;;;21.10;46.49;100827.75;16111454;19;129693;-49
2023/05/09 16:52:31;;;;;;;14.02;4.15;;;;;;;21.08;46.50;100830.78;16121214;19;131077;-50
2023/05/09 16:57:53;;;;;;;16.48;4.25;;;;;;;21.05;46.45;100822.97;16117971;19;131685;-46
2023/05/09 17:03:15;;;;;;;18.20;4.70;;;;;;;21.03;46.67;100822.44;16107474;19;131305;-47
2023/05/09 17:08:36;;;;;;;13.13;4.53;;;;;;;21.02;46.20;100826.31;16116385;19;129466;-54
2023/05/09 17:14:01;;;;;;;15.80;4.47;;;;;;;21.00;46.56;100814.59;16113315;19;130124;-43
2023/05/09 17:19:22;;;;;;;13.57;3.67;;;;;;;20.97;46.71;100817.91;16114024;19;129589;-46
2023/05/09 17:24:44;;;;;;;14.85;3.78;;;;;;;20.96;46.55;100810.66;16116355;19;129938;-49
2023/05/09 17:30:07;;;;;;;11.90;3.85;;;;;;;20.94;46.34;100810.94;16112501;19;133433;-51
2023/05/09 17:35:29;;;;;;;10.57;3.50;;;;;;;20.92;46.85;100802.03;16109921;19;130307;-47
2023/05/09 17:40:51;;;;;;;10.30;3.20;;;;;;;20.95;47.15;100803.44;16114877;19;131438;-49
2023/05/09 17:46:13;;;;;;;12.27;3.00;;;;;;;21.00;46.71;100795.13;16113139;19;132132;-49
2023/05/09 17:51:35;;;;;;;12.77;3.38;;;;;;;21.04;46.77;100796.28;16113546;19;130849;-53
2023/05/09 17:57:01;;;;;;;8.23;2.90;;;;;;;21.03;46.72;100791.84;16107986;19;130741;-49
2023/05/09 18:02:22;;;;;;;7.30;2.47;;;;;;;21.04;46.90;100793.50;16112846;19;129413;-49
2023/05/09 18:07:44;;;;;;;6.10;2.72;;;;;;;21.05;46.98;100793.22;16109722;19;129097;-50
2023/05/09 18:13:07;;;;;;;14.00;3.00;;;;;;;21.05;46.98;100795.16;16116884;19;133560;-45
2023/05/09 18:18:34;;;;;;;7.50;2.50;;;;;;;21.06;46.90;100796.84;16113387;19;129894;-51
2023/05/09 18:23:56;;;;;;;9.40;2.50;;;;;;;21.12;46.66;100803.28;16113990;19;129720;-47
2023/05/09 18:29:18;;;;;;;12.90;2.58;;;;;;;21.18;46.53;100799.44;16111707;19;129516;-50
2023/05/09 18:34:40;;;;;;;12.43;2.10;;;;;;;21.25;46.61;100786.13;16107009;19;131397;-49
2023/05/09 18:40:04;;;;;;;9.73;2.70;;;;;;;21.35;46.58;100796.50;16110435;19;131463;-48
2023/05/09 18:45:25;;;;;;;8.98;2.60;;;;;;;21.42;46.82;100799.88;16109113;19;131096;-50
2023/05/09 18:50:51;;;;;;;10.25;2.58;;;;;;;21.46;46.51;100803.81;16105534;19;129445;-45
2023/05/09 18:56:13;;;;;;;10.17;2.37;;;;;;;21.52;46.47;100801.91;16104233;19;129410;-49
2023/05/09 19:01:36;;;;;;;11.00;2.25;;;;;;;21.58;46.47;100805.56;16097536;19;131304;-52
2023/05/09 19:06:58;;;;;;;6.15;2.08;;;;;;;21.61;46.12;100810.59;16099323;19;129654;-51
2023/05/09 19:12:20;;;;;;;5.68;1.73;;;;;;;21.63;46.20;100809.22;16115488;19;129702;-49
2023/05/09 19:17:42;;;;;;;5.55;2.05;;;;;;;21.69;46.23;100824.00;16120961;19;130382;-47
2023/05/09 19:23:04;;;;;;;9.25;1.90;;;;;;;21.71;46.27;100823.75;16116641;19;129691;-52
2023/05/09 19:28:26;;;;;;;7.20;1.52;;;;;;;21.75;46.14;100816.53;16113461;19;133984;-48
2023/05/09 19:33:48;;;;;;;6.85;1.75;;;;;;;21.76;46.26;100819.06;16110741;19;130069;-49
2023/05/09 19:39:10;;;;;;;4.75;1.60;;;;;;;21.76;45.87;100821.84;16114955;19;130779;-46
2023/05/09 19:44:32;;;;;;;4.35;1.67;;;;;;;21.74;46.04;100835.19;16111781;19;129889;-52
2023/05/09 19:49:54;;;;;;;6.72;1.88;;;;;;;21.71;46.06;100838.50;16118672;19;130614;-49
2023/05/09 19:55:16;;;;;;;5.93;1.50;;;;;;;21.65;45.96;100839.59;16123008;19;129209;-49
2023/05/09 20:00:37;;;;;;;4.18;1.40;;;;;;;21.59;46.12;100838.72;16119738;19;130418;-48
2023/05/09 20:05:59;;;;;;;7.80;1.33;;;;;;;21.51;46.27;100834.50;16118576;19;132719;-50
2023/05/09 20:11:21;;;;;;;3.78;1.25;;;;;;;21.45;46.28;100843.88;16116323;19;131032;-49
2023/05/09 20:16:43;;;;;;;6.75;1.95;;;;;;;21.40;46.33;100837.44;16120039;19;129955;-52
2023/05/09 20:22:07;;;;;;;2.63;1.10;;;;;;;21.33;45.96;100834.88;16113912;19;130397;-49
2023/05/09 20:27:29;;;;;;;6.05;1.40;;;;;;;21.28;46.54;100843.22;16117748;19;130043;-51
2023/05/09 20:32:51;;;;;;;3.20;0.90;;;;;;;21.22;46.52;100833.97;16119838;19;130928;-48
2023/05/09 20:38:13;;;;;;;3.42;1.15;;;;;;;21.18;46.20;100842.00;16113320;19;131498;-48
2023/05/09 20:43:35;;;;;;;3.28;1.38;;;;;;;21.14;46.06;100842.81;16114609;19;130461;-51
2023/05/09 20:48:57;;;;;;;3.15;1.17;;;;;;;21.10;46.38;100844.44;16116383;19;130436;-51
2023/05/09 20:54:19;;;;;;;3.17;1.17;;;;;;;21.06;46.28;100838.56;16114911;19;132142;-48
2023/05/09 20:59:41;;;;;;;2.65;0.93;;;;;;;21.02;46.61;100834.66;16114193;19;130800;-52
2023/05/09 21:05:03;;;;;;;2.08;0.95;;;;;;;20.99;46.49;100841.56;16114341;19;129683;-48
2023/05/09 21:10:25;;;;;;;3.78;1.05;;;;;;;20.96;46.44;100844.03;16112843;19;130442;-49
2023/05/09 21:15:49;;;;;;;2.80;0.70;;;;;;;20.93;46.67;100834.28;16115666;19;131025;-49
2023/05/09 21:21:11;;;;;;;2.57;0.90;;;;;;;20.89;46.23;100835.91;16115133;19;131819;-49
2023/05/09 21:26:35;;;;;;;2.30;0.85;;;;;;;20.88;46.74;100837.00;16109302;19;130514;-47
2023/05/09 21:31:56;;;;;;;2.17;0.90;;;;;;;20.86;46.54;100840.06;16102379;19;131552;-48
2023/05/09 21:37:18;;;;;;;3.42;0.90;;;;;;;20.84;46.68;100825.59;16108081;19;129578;-49
2023/05/09 21:42:42;;;;;;;2.28;0.85;;;;;;;20.80;46.67;100824.44;16107678;19;131506;-50
2023/05/09 21:48:04;;;;;;;2.28;0.82;;;;;;;20.79;46.49;100820.00;16117087;19;129946;-50
2023/05/09 21:53:26;;;;;;;1.15;0.80;;;;;;;20.77;46.25;100819.41;16111801;19;130781;-53
2023/05/09 21:58:48;;;;;;;3.13;0.80;;;;;;;20.76;46.33;100814.97;16111880;19;130298;-48
2023/05/09 22:04:10;;;;;;;2.17;0.80;;;;;;;20.75;46.60;100818.81;16109446;19;129568;-48
2023/05/09 22:09:32;;;;;;;0.75;0.52;;;;;;;20.73;46.56;100809.88;16109717;19;131510;-50
2023/05/09 22:14:54;;;;;;;1.05;0.60;;;;;;;20.72;46.62;100809.06;16109900;19;129927;-48
2023/05/09 22:20:17;;;;;;;1.30;0.68;;;;;;;20.73;46.34;100812.66;16107813;19;129755;-47
2023/05/09 22:25:39;;;;;;;1.00;0.60;;;;;;;20.71;46.31;100809.31;16106895;19;130877;-52
2023/05/09 22:31:04;;;;;;;1.20;0.60;;;;;;;20.70;46.34;100807.63;16105028;19;135721;-49
2023/05/09 22:36:26;;;;;;;6.10;0.90;;;;;;;20.69;46.44;100811.50;16108173;19;129294;-50
2023/05/09 22:41:48;;;;;;;2.20;0.80;;;;;;;20.70;46.32;100818.75;16109000;19;129403;-49
2023/05/09 22:47:11;;;;;;;1.40;0.73;;;;;;;20.67;46.10;100810.94;16122686;19;131067;-53
2023/05/09 22:52:33;;;;;;;1.35;0.60;;;;;;;20.66;46.25;100817.59;16122558;19;129192;-52
2023/05/09 22:57:54;;;;;;;0.93;0.55;;;;;;;20.65;45.97;100824.28;16120357;19;130451;-52
2023/05/09 23:03:16;;;;;;;1.33;0.52;;;;;;;20.63;46.44;100818.13;16123568;19;132074;-49
2023/05/09 23:08:38;;;;;;;1.58;0.50;;;;;;;20.61;46.37;100804.50;16120841;19;131509;-46
2023/05/09 23:14:00;;;;;;;0.73;0.50;;;;;;;20.62;46.55;100810.88;16124450;19;129925;-52
2023/05/09 23:19:22;;;;;;;1.65;0.60;;;;;;;20.57;46.39;100804.16;16120078;19;129393;-46
2023/05/09 23:24:44;;;;;;;3.03;0.50;;;;;;;20.57;46.05;100792.22;16124242;19;130874;-48
2023/05/09 23:30:08;;;;;;;2.15;0.45;;;;;;;20.55;46.28;100802.75;16116606;19;130886;-52
2023/05/09 23:35:30;;;;;;;0.73;0.47;;;;;;;20.54;46.33;100804.72;16122630;19;130842;-51
2023/05/09 23:40:53;;;;;;;0.90;0.50;;;;;;;20.53;46.57;100814.16;16117838;19;130569;-48
2023/05/09 23:46:15;;;;;;;0.57;0.50;;;;;;;20.52;46.17;100812.47;16119215;19;130563;-52
2023/05/09 23:51:36;;;;;;;0.30;0.30;;;;;;;20.50;46.17;100811.88;16121216;19;130131;-49
2023/05/09 23:56:59;;;;;;;0.50;0.40;;;;;;;20.49;46.63;100807.44;16117763;19;130505;-47
